Time;durP1;ratioP1;P1;durP2;ratioP2;P2;SDS_P1;SDS_P2;PMS_P1;PMS_P2;Temp;Humidity;BMP_temperature;BMP_pressure;BME280_temperature;BME280_humidity;BME280_pressure;Samples;Min_cycle;Max_cycle;Signal;HPM_P1;HPM_P2
2024/02/21 00:01:46;;;;;;;18.73;6.80;;;;;;;-146.29;100.00;59205.81;5027772;28;20938;-72
2024/02/21 00:04:12;;;;;;;15.20;6.40;;;;;;;-146.29;100.00;59205.81;5046966;28;20200;-72
2024/02/21 00:06:37;;;;;;;13.23;6.77;;;;;;;-146.29;100.00;59205.81;5033078;28;20195;-72
2024/02/21 00:09:02;;;;;;;9.97;6.03;;;;;;;-146.29;100.00;59205.81;5027133;28;20722;-70
2024/02/21 00:11:28;;;;;;;12.27;5.50;;;;;;;-146.29;100.00;59205.81;5028936;28;20299;-73
2024/02/21 00:13:54;;;;;;;13.53;5.83;;;;;;;-146.29;100.00;59205.81;5033869;28;20204;-72
2024/02/21 00:16:19;;;;;;;11.67;6.30;;;;;;;-146.29;100.00;59205.81;5028383;28;20238;-72
2024/02/21 00:18:44;;;;;;;12.63;6.10;;;;;;;-146.29;100.00;59205.81;5049860;28;20211;-74
2024/02/21 00:21:14;;;;;;;12.17;6.03;;;;;;;-146.29;100.00;59205.81;5038708;28;20733;-70
2024/02/21 00:23:40;;;;;;;11.90;5.83;;;;;;;-146.29;100.00;59205.81;5039660;28;20214;-71
2024/02/21 00:26:06;;;;;;;21.07;6.40;;;;;;;-146.29;100.00;59205.81;5039993;28;20454;-71
2024/02/21 00:28:31;;;;;;;13.53;6.10;;;;;;;-146.29;100.00;59205.81;5022600;28;20187;-72
2024/02/21 00:30:57;;;;;;;11.60;6.50;;;;;;;-146.29;100.00;59205.81;5035065;28;20641;-72
2024/02/21 00:33:22;;;;;;;16.43;6.20;;;;;;;-146.29;100.00;59205.81;5046237;28;20187;-72
2024/02/21 00:35:48;;;;;;;12.97;5.70;;;;;;;-146.29;100.00;59205.81;5036085;28;20198;-73
2024/02/21 00:38:13;;;;;;;10.47;5.63;;;;;;;-146.29;100.00;59205.81;5035315;28;20198;-71
2024/02/21 00:40:38;;;;;;;12.03;5.07;;;;;;;-146.29;100.00;59205.81;5030832;28;20287;-73
2024/02/21 00:43:04;;;;;;;12.20;5.60;;;;;;;-146.29;100.00;59205.81;5031224;28;20271;-71
2024/02/21 00:45:29;;;;;;;12.03;5.23;;;;;;;-146.29;100.00;59205.81;5031334;28;20643;-72
2024/02/21 00:47:55;;;;;;;21.77;5.40;;;;;;;-146.29;100.00;59205.81;5008272;28;20261;-72
2024/02/21 00:50:20;;;;;;;11.40;5.33;;;;;;;-146.29;100.00;59205.81;5039461;28;20219;-74
2024/02/21 00:52:46;;;;;;;9.00;4.50;;;;;;;-146.29;100.00;59205.81;5032780;28;20183;-73
2024/02/21 00:55:11;;;;;;;15.13;4.83;;;;;;;-146.29;100.00;59205.81;5038324;28;20183;-73
2024/02/21 00:57:37;;;;;;;13.03;5.70;;;;;;;-146.29;100.00;59205.81;5031758;28;20216;-71
2024/02/21 01:00:03;;;;;;;9.70;4.43;;;;;;;-146.29;100.00;59205.81;5037779;28;20207;-71
2024/02/21 01:02:31;;;;;;;15.47;4.77;;;;;;;-146.29;100.00;59205.81;5030429;28;20180;-72
2024/02/21 01:04:57;;;;;;;7.87;4.23;;;;;;;-146.29;100.00;59205.81;5028675;28;20441;-70
2024/02/21 01:07:23;;;;;;;17.97;4.70;;;;;;;-146.29;100.00;59205.81;5036755;28;20448;-72
2024/02/21 01:13:10;;;;;;;8.43;4.27;;;;;;;-146.29;100.00;59205.81;5023561;28;20302;-70
2024/02/21 01:15:35;;;;;;;15.27;4.33;;;;;;;-146.29;100.00;59205.81;5027301;28;20947;-70
2024/02/21 01:18:01;;;;;;;10.70;3.83;;;;;;;-146.29;100.00;59205.81;5044715;28;20275;-70
2024/02/21 01:20:26;;;;;;;15.40;4.20;;;;;;;-146.29;100.00;59205.81;5033422;28;20207;-71
2024/02/21 01:22:52;;;;;;;9.10;4.00;;;;;;;-146.29;100.00;59205.81;5033316;28;20410;-69
2024/02/21 01:25:17;;;;;;;11.00;4.10;;;;;;;-146.29;100.00;59205.81;5029108;28;20180;-70
2024/02/21 01:27:43;;;;;;;11.80;4.00;;;;;;;-146.29;100.00;59205.81;5030176;28;20188;-70
2024/02/21 01:30:10;;;;;;;9.77;4.10;;;;;;;-146.29;100.00;59205.81;5037639;28;20208;-69
2024/02/21 01:32:36;;;;;;;12.97;4.17;;;;;;;-146.29;100.00;59205.81;5034327;28;20183;-69
2024/02/21 01:35:02;;;;;;;6.37;3.20;;;;;;;-146.29;100.00;59205.81;5031424;28;20564;-70
2024/02/21 01:37:28;;;;;;;10.53;4.63;;;;;;;-146.29;100.00;59205.81;5041947;28;20187;-69
2024/02/21 01:39:53;;;;;;;10.83;4.10;;;;;;;-146.29;100.00;59205.81;5030130;28;20423;-68
2024/02/21 01:42:19;;;;;;;13.40;4.50;;;;;;;-146.29;100.00;59205.81;5037022;28;20265;-69
2024/02/21 01:44:44;;;;;;;10.80;4.63;;;;;;;-146.29;100.00;59205.81;5033430;28;20183;-70
2024/02/21 01:47:10;;;;;;;12.60;4.70;;;;;;;-146.29;100.00;59205.81;5029714;28;20589;-70
2024/02/21 01:49:36;;;;;;;9.63;4.40;;;;;;;-146.29;100.00;59205.81;5033829;28;20194;-69
2024/02/21 01:52:02;;;;;;;7.23;3.63;;;;;;;-146.29;100.00;59205.81;5031875;28;20461;-71
2024/02/21 01:54:28;;;;;;;9.97;4.10;;;;;;;-146.29;100.00;59205.81;5031460;28;20194;-70
2024/02/21 01:56:54;;;;;;;11.90;4.10;;;;;;;-146.29;100.00;59205.81;5026132;28;20427;-68
2024/02/21 01:59:21;;;;;;;6.13;3.50;;;;;;;-146.29;100.00;59205.81;5038732;28;20184;-69
2024/02/21 02:01:47;;;;;;;7.80;3.20;;;;;;;-146.29;100.00;59205.81;5027983;28;20211;-68
2024/02/21 02:04:13;;;;;;;9.67;3.87;;;;;;;-146.29;100.00;59205.81;5037844;28;20415;-69
2024/02/21 02:06:39;;;;;;;13.13;4.13;;;;;;;-146.29;100.00;59205.81;5045892;28;20953;-69
2024/02/21 02:09:05;;;;;;;8.33;3.90;;;;;;;-146.29;100.00;59205.81;5034080;28;20258;-70
2024/02/21 02:11:32;;;;;;;9.73;4.40;;;;;;;-146.29;100.00;59205.81;5037646;28;20483;-69
2024/02/21 02:13:57;;;;;;;8.00;3.87;;;;;;;-146.29;100.00;59205.81;5034768;28;20215;-69
2024/02/21 02:16:22;;;;;;;10.77;3.40;;;;;;;-146.29;100.00;59205.81;5031663;28;20919;-70
2024/02/21 02:18:48;;;;;;;8.30;3.70;;;;;;;-146.29;100.00;59205.81;5030809;28;20433;-70
2024/02/21 02:21:24;;;;;;;11.97;3.87;;;;;;;-146.29;100.00;59205.81;5033981;28;20275;-69
2024/02/21 02:23:49;;;;;;;8.63;3.80;;;;;;;-146.29;100.00;59205.81;5029840;28;20627;-70
2024/02/21 02:26:15;;;;;;;9.27;4.27;;;;;;;-146.29;100.00;59205.81;5029622;28;20494;-71
2024/02/21 02:28:40;;;;;;;7.20;3.83;;;;;;;-146.29;100.00;59205.81;5029409;28;20677;-69
2024/02/21 02:31:06;;;;;;;13.03;4.23;;;;;;;-146.29;100.00;59205.81;5042100;28;20207;-69
2024/02/21 02:33:32;;;;;;;8.53;3.80;;;;;;;-146.29;100.00;59205.81;5029410;28;20318;-68
2024/02/21 02:35:58;;;;;;;12.47;3.93;;;;;;;-146.29;100.00;59205.81;5033281;28;20176;-70
2024/02/21 02:38:24;;;;;;;11.53;4.10;;;;;;;-146.29;100.00;59205.81;5028748;28;20238;-70
2024/02/21 02:40:49;;;;;;;7.00;3.80;;;;;;;-146.29;100.00;59205.81;5036929;28;20999;-70
2024/02/21 02:43:15;;;;;;;7.17;3.80;;;;;;;-146.29;100.00;59205.81;5032576;28;20821;-69
2024/02/21 02:45:40;;;;;;;10.07;3.60;;;;;;;-146.29;100.00;59205.81;5028897;28;20183;-70
2024/02/21 02:48:06;;;;;;;6.83;4.00;;;;;;;-146.29;100.00;59205.81;5034720;28;20203;-70
2024/02/21 02:50:32;;;;;;;11.03;3.60;;;;;;;-146.29;100.00;59205.81;5035016;28;20215;-70
2024/02/21 02:52:57;;;;;;;8.50;4.53;;;;;;;-146.29;100.00;59205.81;5027428;28;20207;-67
2024/02/21 02:55:23;;;;;;;12.87;4.27;;;;;;;-146.29;100.00;59205.81;5029697;28;20187;-70
2024/02/21 02:57:48;;;;;;;9.67;3.63;;;;;;;-146.29;100.00;59205.81;5041124;28;20176;-70
2024/02/21 03:00:14;;;;;;;9.03;3.70;;;;;;;-146.29;100.00;59205.81;5034864;28;20184;-70
2024/02/21 03:02:41;;;;;;;9.70;3.73;;;;;;;-146.29;100.00;59205.81;5036627;28;20186;-71
2024/02/21 03:05:17;;;;;;;9.20;3.90;;;;;;;-146.29;100.00;59205.81;5016663;28;20431;-68
2024/02/21 03:07:42;;;;;;;7.33;3.90;;;;;;;-146.29;100.00;59205.81;5027703;28;20429;-69
2024/02/21 03:10:08;;;;;;;10.20;3.67;;;;;;;-146.29;100.00;59205.81;5027778;28;21040;-70
2024/02/21 03:12:34;;;;;;;10.87;4.13;;;;;;;-146.29;100.00;59205.81;5027623;28;20180;-70
2024/02/21 03:14:59;;;;;;;10.27;4.03;;;;;;;-146.29;100.00;59205.81;5027026;28;20445;-70
2024/02/21 03:17:26;;;;;;;9.90;3.90;;;;;;;-146.29;100.00;59205.81;5027331;28;20183;-69
2024/02/21 03:19:52;;;;;;;17.20;4.43;;;;;;;-146.29;100.00;59205.81;5031528;28;20675;-69
2024/02/21 03:22:18;;;;;;;7.70;4.07;;;;;;;-146.29;100.00;59205.81;5036142;28;20422;-70
2024/02/21 03:24:43;;;;;;;9.60;3.80;;;;;;;-146.29;100.00;59205.81;5030778;28;20191;-70
2024/02/21 03:27:08;;;;;;;8.43;3.80;;;;;;;-146.29;100.00;59205.81;5031002;28;20179;-70
2024/02/21 03:29:34;;;;;;;8.60;4.00;;;;;;;-146.29;100.00;59205.81;5028493;28;20214;-70
2024/02/21 03:31:59;;;;;;;10.60;3.20;;;;;;;-146.29;100.00;59205.81;5036662;28;20244;-69
2024/02/21 03:34:25;;;;;;;9.50;4.43;;;;;;;-146.29;100.00;59205.81;5028720;28;20183;-70
2024/02/21 03:36:50;;;;;;;11.20;4.57;;;;;;;-146.29;100.00;59205.81;5037176;28;20187;-69
2024/02/21 03:39:16;;;;;;;17.70;3.70;;;;;;;-146.29;100.00;59205.81;5034852;28;20598;-70
2024/02/21 03:41:41;;;;;;;10.87;3.63;;;;;;;-146.29;100.00;59205.81;5030849;28;20556;-68
2024/02/21 03:44:07;;;;;;;10.50;3.10;;;;;;;-146.29;100.00;59205.81;5028462;28;20267;-70
2024/02/21 03:46:32;;;;;;;17.93;4.03;;;;;;;-146.29;100.00;59205.81;5034256;28;20270;-70
2024/02/21 03:48:57;;;;;;;17.40;3.60;;;;;;;-146.29;100.00;59205.81;5029144;28;20263;-69
2024/02/21 03:51:23;;;;;;;9.93;3.53;;;;;;;-146.29;100.00;59205.81;5031451;28;20770;-69
2024/02/21 03:53:49;;;;;;;10.10;3.63;;;;;;;-146.29;100.00;59205.81;5028122;28;20583;-68
2024/02/21 03:56:14;;;;;;;16.63;4.00;;;;;;;-146.29;100.00;59205.81;5030481;28;20435;-68
2024/02/21 03:58:40;;;;;;;13.37;3.90;;;;;;;-146.29;100.00;59205.81;5027479;28;20183;-69
2024/02/21 04:01:05;;;;;;;8.93;3.43;;;;;;;-146.29;100.00;59205.81;5040495;28;20233;-70
2024/02/21 04:03:31;;;;;;;9.60;3.30;;;;;;;-146.29;100.00;59205.81;5034064;28;20236;-68
2024/02/21 04:05:56;;;;;;;8.80;3.90;;;;;;;-146.29;100.00;59205.81;5029095;28;20716;-70
2024/02/21 04:08:22;;;;;;;8.40;3.00;;;;;;;-146.29;100.00;59205.81;5033704;28;20233;-68
2024/02/21 04:10:48;;;;;;;8.50;3.17;;;;;;;-146.29;100.00;59205.81;5032519;28;20283;-68
2024/02/21 04:13:13;;;;;;;10.00;3.50;;;;;;;-146.29;100.00;59205.81;5039091;28;21049;-69
2024/02/21 04:15:39;;;;;;;8.13;3.40;;;;;;;-146.29;100.00;59205.81;5027697;28;20251;-68
2024/02/21 04:18:04;;;;;;;9.80;3.53;;;;;;;-146.29;100.00;59205.81;5027344;28;20267;-70
2024/02/21 04:20:30;;;;;;;11.60;3.57;;;;;;;-146.29;100.00;59205.81;5049134;28;20241;-68
2024/02/21 04:22:56;;;;;;;9.50;3.63;;;;;;;-146.29;100.00;59205.81;5012366;28;20266;-67
2024/02/21 04:25:21;;;;;;;6.90;3.20;;;;;;;-146.29;100.00;59205.81;5032853;28;20261;-68
2024/02/21 04:27:47;;;;;;;6.80;3.33;;;;;;;-146.29;100.00;59205.81;5039641;28;20185;-69
2024/02/21 04:30:12;;;;;;;8.00;3.77;;;;;;;-146.29;100.00;59205.81;5025935;28;20625;-69
2024/02/21 04:32:38;;;;;;;10.00;3.50;;;;;;;-146.29;100.00;59205.81;5027062;28;20683;-70
2024/02/21 04:35:04;;;;;;;6.47;3.13;;;;;;;-146.29;100.00;59205.81;5025625;28;20261;-69
2024/02/21 04:37:30;;;;;;;7.60;3.17;;;;;;;-146.29;100.00;59205.81;5027018;28;20891;-68
2024/02/21 04:39:56;;;;;;;7.80;2.90;;;;;;;-146.29;100.00;59205.81;5038825;28;20253;-69
2024/02/21 04:42:21;;;;;;;9.13;3.37;;;;;;;-146.29;100.00;59205.81;5038421;28;20418;-69
2024/02/21 04:44:47;;;;;;;5.77;3.10;;;;;;;-146.29;100.00;59205.81;5027542;28;20184;-70
2024/02/21 04:47:12;;;;;;;10.07;3.93;;;;;;;-146.29;100.00;59205.81;5030172;28;20549;-68
2024/02/21 04:49:38;;;;;;;10.90;3.43;;;;;;;-146.29;100.00;59205.81;5034794;28;20183;-70
2024/02/21 04:52:04;;;;;;;6.13;3.03;;;;;;;-146.29;100.00;59205.81;5026366;28;20245;-71
2024/02/21 04:54:29;;;;;;;7.40;2.77;;;;;;;-146.29;100.00;59205.81;5027592;28;20505;-68
2024/02/21 04:56:55;;;;;;;8.80;3.40;;;;;;;-146.29;100.00;59205.81;5035243;28;20803;-69
2024/02/21 04:59:20;;;;;;;11.77;3.17;;;;;;;-146.29;100.00;59205.81;5030742;28;20727;-68
2024/02/21 05:01:45;;;;;;;8.47;3.07;;;;;;;-146.29;100.00;59205.81;5038286;28;20207;-70
2024/02/21 05:04:11;;;;;;;4.40;3.40;;;;;;;-146.29;100.00;59205.81;5040114;28;20257;-70
2024/02/21 05:06:38;;;;;;;7.47;2.83;;;;;;;-146.29;100.00;59205.81;5047689;28;20296;-70
2024/02/21 05:09:04;;;;;;;7.83;2.87;;;;;;;-146.29;100.00;59205.81;5032379;28;20196;-72
2024/02/21 05:11:30;;;;;;;8.07;2.80;;;;;;;-146.29;100.00;59205.81;5034357;28;20462;-70
2024/02/21 05:13:55;;;;;;;6.63;3.30;;;;;;;-146.29;100.00;59205.81;5035835;28;20477;-69
2024/02/21 05:16:21;;;;;;;6.77;2.90;;;;;;;-146.29;100.00;59205.81;5041623;28;20560;-70
2024/02/21 05:18:46;;;;;;;9.17;3.47;;;;;;;-146.29;100.00;59205.81;5037107;28;20230;-69
2024/02/21 05:21:12;;;;;;;12.70;3.80;;;;;;;-146.29;100.00;59205.81;5035394;28;20203;-70
2024/02/21 05:23:39;;;;;;;6.73;2.80;;;;;;;-146.29;100.00;59205.81;5040574;28;20190;-69
2024/02/21 05:26:05;;;;;;;7.27;3.23;;;;;;;-146.29;100.00;59205.81;5030455;28;20200;-70
2024/02/21 05:28:30;;;;;;;13.47;3.10;;;;;;;-146.29;100.00;59205.81;5030088;28;20426;-69
2024/02/21 05:30:56;;;;;;;6.93;3.17;;;;;;;-146.29;100.00;59205.81;5030273;28;20466;-71
2024/02/21 05:33:21;;;;;;;9.33;3.40;;;;;;;-146.29;100.00;59205.81;5032820;28;20183;-68
2024/02/21 05:35:48;;;;;;;7.87;4.17;;;;;;;-146.29;100.00;59205.81;5030202;28;20202;-69
2024/02/21 05:38:14;;;;;;;9.90;4.87;;;;;;;-146.29;100.00;59205.81;5028791;28;20184;-70
2024/02/21 05:40:40;;;;;;;7.73;3.57;;;;;;;-146.29;100.00;59205.81;5029344;28;20453;-70
2024/02/21 05:43:07;;;;;;;7.20;3.87;;;;;;;-146.29;100.00;59205.81;5032229;28;20426;-70
2024/02/21 05:45:32;;;;;;;4.73;3.07;;;;;;;-146.29;100.00;59205.81;5034674;28;20214;-71
2024/02/21 05:47:58;;;;;;;9.37;3.60;;;;;;;-146.29;100.00;59205.81;5029171;28;20430;-69
2024/02/21 05:50:23;;;;;;;8.80;3.57;;;;;;;-146.29;100.00;59205.81;5031063;28;20219;-69
2024/02/21 05:52:55;;;;;;;11.93;3.60;;;;;;;-146.29;100.00;59205.81;5035753;28;20234;-70
2024/02/21 05:55:21;;;;;;;12.17;3.27;;;;;;;-146.29;100.00;59205.81;5031843;28;20267;-70
2024/02/21 05:57:47;;;;;;;6.90;3.50;;;;;;;-146.29;100.00;59205.81;5030164;28;20456;-69
2024/02/21 06:00:13;;;;;;;9.70;3.50;;;;;;;-146.29;100.00;59205.81;5031346;28;20187;-70
2024/02/21 06:02:38;;;;;;;9.93;3.17;;;;;;;-146.29;100.00;59205.81;5030237;28;20191;-70
2024/02/21 06:05:07;;;;;;;11.03;3.80;;;;;;;-146.29;100.00;59205.81;5029717;28;20422;-70
2024/02/21 06:07:33;;;;;;;6.30;3.20;;;;;;;-146.29;100.00;59205.81;5034816;28;20195;-70
2024/02/21 06:09:58;;;;;;;8.10;3.00;;;;;;;-146.29;100.00;59205.81;5031041;28;20794;-69
2024/02/21 06:12:23;;;;;;;9.00;3.27;;;;;;;-146.29;100.00;59205.81;5042839;28;20564;-71
2024/02/21 06:14:49;;;;;;;6.80;2.77;;;;;;;-146.29;100.00;59205.81;5035536;28;20275;-69
2024/02/21 06:17:14;;;;;;;7.13;3.63;;;;;;;-146.29;100.00;59205.81;5029237;28;20230;-69
2024/02/21 06:19:41;;;;;;;10.83;4.07;;;;;;;-146.29;100.00;59205.81;5029639;28;20182;-70
2024/02/21 06:22:07;;;;;;;9.53;3.30;;;;;;;-146.29;100.00;59205.81;5037549;28;20192;-71
2024/02/21 06:24:36;;;;;;;8.90;3.23;;;;;;;-146.29;100.00;59205.81;5028803;28;20842;-68
2024/02/21 06:27:03;;;;;;;9.70;3.17;;;;;;;-146.29;100.00;59205.81;5029209;28;20407;-71
2024/02/21 06:29:28;;;;;;;6.80;2.90;;;;;;;-146.29;100.00;59205.81;5033073;28;20838;-71
2024/02/21 06:31:54;;;;;;;9.53;3.60;;;;;;;-146.29;100.00;59205.81;5037983;28;20541;-70
2024/02/21 06:34:19;;;;;;;8.20;4.20;;;;;;;-146.29;100.00;59205.81;5039512;28;20668;-71
2024/02/21 06:36:45;;;;;;;5.87;3.00;;;;;;;-146.29;100.00;59205.81;5040283;28;20269;-71
2024/02/21 06:39:11;;;;;;;9.50;3.30;;;;;;;-146.29;100.00;59205.81;5026308;28;20253;-70
2024/02/21 06:41:37;;;;;;;10.73;3.73;;;;;;;-146.29;100.00;59205.81;5034023;28;20223;-70
2024/02/21 06:44:02;;;;;;;12.60;3.70;;;;;;;-146.29;100.00;59205.81;5030180;28;20447;-71
2024/02/21 06:46:29;;;;;;;8.00;3.87;;;;;;;-146.29;100.00;59205.81;5029362;28;20180;-70
2024/02/21 06:48:57;;;;;;;10.60;3.50;;;;;;;-146.29;100.00;59205.81;5030149;28;20632;-70
2024/02/21 06:51:23;;;;;;;6.70;3.30;;;;;;;-146.29;100.00;59205.81;5040266;28;20465;-70
2024/02/21 06:53:48;;;;;;;8.80;3.73;;;;;;;-146.29;100.00;59205.81;5031084;28;20429;-71
2024/02/21 06:56:14;;;;;;;11.73;4.20;;;;;;;-146.29;100.00;59205.81;5053102;28;20229;-70
2024/02/21 06:58:39;;;;;;;12.47;3.80;;;;;;;-146.29;100.00;59205.81;5028990;28;20267;-70
2024/02/21 07:01:05;;;;;;;10.50;4.00;;;;;;;-146.29;100.00;59205.81;5037383;28;20687;-70
2024/02/21 07:03:30;;;;;;;15.20;4.00;;;;;;;-146.29;100.00;59205.81;5043907;28;20197;-70
2024/02/21 07:05:55;;;;;;;7.87;3.63;;;;;;;-146.29;100.00;59205.81;5033558;28;20210;-71
2024/02/21 07:08:21;;;;;;;7.23;3.00;;;;;;;-146.29;100.00;59205.81;5039334;28;20715;-70
2024/02/21 07:10:47;;;;;;;6.50;3.00;;;;;;;-146.29;100.00;59205.81;5032909;28;20649;-70
2024/02/21 07:13:13;;;;;;;8.20;3.77;;;;;;;-146.29;100.00;59205.81;5036305;28;20704;-70
2024/02/21 07:15:38;;;;;;;8.30;3.67;;;;;;;-146.29;100.00;59205.81;5030404;28;20207;-66
2024/02/21 07:18:04;;;;;;;8.93;3.37;;;;;;;-146.29;100.00;59205.81;5035712;28;20415;-70
2024/02/21 07:20:29;;;;;;;9.37;3.90;;;;;;;-146.29;100.00;59205.81;5031715;28;20278;-71
2024/02/21 07:22:55;;;;;;;11.03;3.93;;;;;;;-146.29;100.00;59205.81;5037843;28;20180;-69
2024/02/21 07:25:20;;;;;;;8.53;3.87;;;;;;;-146.29;100.00;59205.81;5033355;28;20264;-69
2024/02/21 07:27:46;;;;;;;14.93;4.87;;;;;;;-146.29;100.00;59205.81;5035102;28;20263;-70
2024/02/21 07:30:11;;;;;;;12.63;3.50;;;;;;;-146.29;100.00;59205.81;5028044;28;20175;-69
2024/02/21 07:32:37;;;;;;;10.27;3.40;;;;;;;-146.29;100.00;59205.81;5029793;28;20184;-69
2024/02/21 07:35:03;;;;;;;7.03;2.77;;;;;;;-146.29;100.00;59205.81;5028437;28;20186;-70
2024/02/21 07:37:28;;;;;;;6.37;2.80;;;;;;;-146.29;100.00;59205.81;5028046;28;20683;-71
2024/02/21 07:39:53;;;;;;;5.70;2.90;;;;;;;-146.29;100.00;59205.81;5038045;28;20240;-71
2024/02/21 07:42:19;;;;;;;11.07;3.63;;;;;;;-146.29;100.00;59205.81;5036647;28;20195;-71
2024/02/21 07:44:45;;;;;;;7.17;3.07;;;;;;;-146.29;100.00;59205.81;5027588;28;20180;-70
2024/02/21 07:47:10;;;;;;;5.77;2.67;;;;;;;-146.29;100.00;59205.81;5026634;28;20805;-70
2024/02/21 07:49:48;;;;;;;8.20;2.90;;;;;;;-146.29;100.00;59205.81;5031215;28;20494;-70
2024/02/21 07:52:14;;;;;;;9.43;3.60;;;;;;;-146.29;100.00;59205.81;5028297;28;20294;-71
2024/02/21 07:54:40;;;;;;;7.87;3.13;;;;;;;-146.29;100.00;59205.81;5035768;28;20537;-70
2024/02/21 07:57:07;;;;;;;12.70;3.30;;;;;;;-146.29;100.00;59205.81;5036639;28;20241;-70
2024/02/21 07:59:32;;;;;;;6.97;2.90;;;;;;;-146.29;100.00;59205.81;5028056;28;20963;-71
2024/02/21 08:01:58;;;;;;;4.83;2.67;;;;;;;-146.29;100.00;59205.81;5034069;28;20453;-71
2024/02/21 08:04:23;;;;;;;6.53;3.27;;;;;;;-146.29;100.00;59205.81;5030923;28;20184;-70
2024/02/21 08:06:53;;;;;;;10.67;2.90;;;;;;;-146.29;100.00;59205.81;5028597;28;20210;-70
2024/02/21 08:09:19;;;;;;;5.97;2.90;;;;;;;-146.29;100.00;59205.81;5027622;28;20184;-70
2024/02/21 08:11:44;;;;;;;6.50;2.63;;;;;;;-146.29;100.00;59205.81;5031042;28;20469;-70
2024/02/21 08:14:10;;;;;;;6.40;2.70;;;;;;;-146.29;100.00;59205.81;5028352;28;20188;-70
2024/02/21 08:16:35;;;;;;;7.90;2.63;;;;;;;-146.29;100.00;59205.81;5031576;28;20321;-70
2024/02/21 08:19:02;;;;;;;8.03;3.00;;;;;;;-146.29;100.00;59205.81;5043822;28;20683;-70
2024/02/21 08:21:28;;;;;;;15.70;2.90;;;;;;;-146.29;100.00;59205.81;5030591;28;20199;-72
2024/02/21 08:23:54;;;;;;;7.20;3.10;;;;;;;-146.29;100.00;59205.81;5033911;28;20419;-70
2024/02/21 08:26:19;;;;;;;8.97;3.37;;;;;;;-146.29;100.00;59205.81;5031310;28;20229;-74
2024/02/21 08:28:45;;;;;;;9.60;2.80;;;;;;;-146.29;100.00;59205.81;5034506;28;20422;-73
2024/02/21 08:31:10;;;;;;;11.10;3.00;;;;;;;-146.29;100.00;59205.81;5033053;28;20206;-72
2024/02/21 08:33:36;;;;;;;13.30;3.47;;;;;;;-146.29;100.00;59205.81;5029127;28;20275;-72
2024/02/21 08:36:01;;;;;;;5.73;3.13;;;;;;;-146.29;100.00;59205.81;5042716;28;20186;-72
2024/02/21 08:38:27;;;;;;;8.20;3.20;;;;;;;-146.29;100.00;59205.81;5033222;28;20538;-72
2024/02/21 08:40:52;;;;;;;8.50;2.53;;;;;;;-146.29;100.00;59205.81;5032310;28;20229;-71
2024/02/21 08:43:17;;;;;;;6.63;2.97;;;;;;;-146.29;100.00;59205.81;5030414;28;20254;-71
2024/02/21 08:45:43;;;;;;;6.93;2.80;;;;;;;-146.29;100.00;59205.81;5031312;28;20203;-71
2024/02/21 08:48:08;;;;;;;7.10;2.70;;;;;;;-146.29;100.00;59205.81;5031810;28;20374;-71
2024/02/21 08:50:34;;;;;;;12.00;3.10;;;;;;;-146.29;100.00;59205.81;5035031;28;20789;-72
2024/02/21 08:52:59;;;;;;;8.70;3.00;;;;;;;-146.29;100.00;59205.81;5031782;28;20177;-73
2024/02/21 08:55:25;;;;;;;7.70;2.40;;;;;;;-146.29;100.00;59205.81;5031190;28;20835;-73
2024/02/21 08:57:50;;;;;;;5.93;2.60;;;;;;;-146.29;100.00;59205.81;5041274;28;20230;-71
2024/02/21 09:00:16;;;;;;;6.07;2.20;;;;;;;-146.29;100.00;59205.81;5034113;28;20184;-71
2024/02/21 09:02:45;;;;;;;7.00;2.70;;;;;;;-146.29;100.00;59205.81;5039111;28;20203;-70
2024/02/21 09:05:11;;;;;;;8.97;2.53;;;;;;;-146.29;100.00;59205.81;5032441;28;20594;-72
2024/02/21 09:07:36;;;;;;;7.17;2.60;;;;;;;-146.29;100.00;59205.81;5045507;28;20410;-72
2024/02/21 09:10:02;;;;;;;6.50;2.10;;;;;;;-146.29;100.00;59205.81;5031108;28;20777;-72
2024/02/21 09:12:29;;;;;;;9.10;2.80;;;;;;;-146.29;100.00;59205.81;5031095;28;20259;-70
2024/02/21 09:14:54;;;;;;;5.90;2.40;;;;;;;-146.29;100.00;59205.81;5030810;28;20442;-71
2024/02/21 09:17:20;;;;;;;5.80;2.53;;;;;;;-146.29;100.00;59205.81;5031037;28;20433;-71
2024/02/21 09:19:47;;;;;;;5.43;2.53;;;;;;;-146.29;100.00;59205.81;5033489;28;20180;-71
2024/02/21 09:22:13;;;;;;;6.77;2.50;;;;;;;-146.29;100.00;59205.81;5037208;28;20274;-71
2024/02/21 09:24:38;;;;;;;13.60;3.20;;;;;;;-146.29;100.00;59205.81;5034864;28;20546;-71
2024/02/21 09:27:05;;;;;;;7.50;2.40;;;;;;;-146.29;100.00;59205.81;5031515;28;20176;-73
2024/02/21 09:29:32;;;;;;;7.27;2.40;;;;;;;-146.29;100.00;59205.81;5036106;28;20194;-71
2024/02/21 09:31:59;;;;;;;6.13;2.30;;;;;;;-146.29;100.00;59205.81;5029341;28;20458;-71
2024/02/21 09:34:24;;;;;;;14.93;2.33;;;;;;;-146.29;100.00;59205.81;5030827;28;20422;-71
2024/02/21 09:36:49;;;;;;;7.67;2.60;;;;;;;-146.29;100.00;59205.81;5039021;28;20434;-71
2024/02/21 09:39:18;;;;;;;5.50;2.30;;;;;;;-146.29;100.00;59205.81;5039469;28;20700;-71
2024/02/21 09:41:55;;;;;;;9.60;2.70;;;;;;;-146.29;100.00;59205.81;5027169;28;20194;-71
2024/02/21 09:44:21;;;;;;;7.37;2.37;;;;;;;-146.29;100.00;59205.81;5026152;28;20964;-72
2024/02/21 09:46:46;;;;;;;6.60;2.33;;;;;;;-146.29;100.00;59205.81;5035052;28;20458;-72
2024/02/21 09:49:38;;;;;;;8.53;2.67;;;;;;;-146.29;100.00;59205.81;5034303;28;20598;-73
2024/02/21 09:52:07;;;;;;;10.57;2.40;;;;;;;-146.29;100.00;59205.81;5030500;28;20251;-70
2024/02/21 09:54:33;;;;;;;9.57;2.57;;;;;;;-146.29;100.00;59205.81;5039249;28;20525;-71
2024/02/21 09:57:03;;;;;;;5.40;2.03;;;;;;;-146.29;100.00;59205.81;5030396;28;20426;-71
2024/02/21 09:59:30;;;;;;;7.83;2.13;;;;;;;-146.29;100.00;59205.81;5027276;28;20414;-71
2024/02/21 10:01:56;;;;;;;7.50;2.40;;;;;;;-146.29;100.00;59205.81;5034992;28;20434;-71
2024/02/21 10:04:21;;;;;;;7.63;2.13;;;;;;;-146.29;100.00;59205.81;5038696;28;20465;-71
2024/02/21 10:06:47;;;;;;;5.27;2.10;;;;;;;-146.29;100.00;59205.81;5030581;28;20271;-72
2024/02/21 10:09:22;;;;;;;6.03;1.97;;;;;;;-146.29;100.00;59205.81;5033698;28;20172;-73
2024/02/21 10:11:49;;;;;;;7.20;2.23;;;;;;;-146.29;100.00;59205.81;5027899;28;20236;-72
2024/02/21 10:14:15;;;;;;;6.50;1.90;;;;;;;-146.29;100.00;59205.81;5043852;28;20808;-71
2024/02/21 10:16:41;;;;;;;5.80;2.00;;;;;;;-146.29;100.00;59205.81;5029827;28;20418;-71
2024/02/21 10:19:06;;;;;;;7.40;2.80;;;;;;;-146.29;100.00;59205.81;5031721;28;20206;-72
2024/02/21 10:21:32;;;;;;;4.33;1.90;;;;;;;-146.29;100.00;59205.81;5030517;28;20279;-71
2024/02/21 10:23:58;;;;;;;7.13;2.10;;;;;;;-146.29;100.00;59205.81;5032937;28;20179;-72
2024/02/21 10:26:23;;;;;;;9.33;2.40;;;;;;;-146.29;100.00;59205.81;5029890;28;20533;-72
2024/02/21 10:28:51;;;;;;;5.30;2.13;;;;;;;-146.29;100.00;59205.81;5042500;28;20207;-71
2024/02/21 10:31:28;;;;;;;6.10;2.37;;;;;;;-146.29;100.00;59205.81;5030314;28;20290;-72
2024/02/21 10:33:55;;;;;;;6.90;2.20;;;;;;;-146.29;100.00;59205.81;5025495;28;20810;-71
2024/02/21 10:36:20;;;;;;;9.10;2.10;;;;;;;-146.29;100.00;59205.81;5032680;28;21034;-71
2024/02/21 10:38:46;;;;;;;6.30;2.20;;;;;;;-146.29;100.00;59205.81;5032722;28;20431;-71
2024/02/21 10:41:13;;;;;;;9.60;3.33;;;;;;;-146.29;100.00;59205.81;5030941;28;20213;-71
2024/02/21 10:43:40;;;;;;;8.47;2.50;;;;;;;-146.29;100.00;59205.81;5025166;28;20198;-72
2024/02/21 10:46:10;;;;;;;5.60;1.77;;;;;;;-146.29;100.00;59205.81;5027520;28;20823;-72
2024/02/21 10:48:43;;;;;;;3.87;1.80;;;;;;;-146.29;100.00;59205.81;5035675;28;20488;-72
2024/02/21 10:51:19;;;;;;;9.50;2.60;;;;;;;-146.29;100.00;59205.81;5027440;28;20466;-71
2024/02/21 10:54:15;;;;;;;6.70;2.30;;;;;;;-146.29;100.00;59205.81;5026950;28;21023;-71
2024/02/21 10:56:41;;;;;;;4.07;1.90;;;;;;;-146.29;100.00;59205.81;5037530;28;20414;-71
2024/02/21 10:59:07;;;;;;;4.87;2.27;;;;;;;-146.29;100.00;59205.81;5026746;28;20441;-72
2024/02/21 11:01:35;;;;;;;7.80;2.53;;;;;;;-146.29;100.00;59205.81;5026987;28;20204;-71
2024/02/21 11:04:05;;;;;;;8.00;2.10;;;;;;;-146.29;100.00;59205.81;5026891;28;21082;-72
2024/02/21 11:06:31;;;;;;;4.40;2.10;;;;;;;-146.29;100.00;59205.81;5029318;28;20442;-71